createdAt,value
2019-02-16T00:00:52.119Z,0.80
2019-02-16T00:01:52.265Z,0.76
2019-02-16T00:02:52.404Z,0.64
2019-02-16T00:03:52.547Z,0.80
2019-02-16T00:04:52.690Z,0.85
2019-02-16T00:05:52.834Z,0.80
2019-02-16T00:06:52.978Z,0.71
2019-02-16T00:07:53.122Z,0.68
2019-02-16T00:08:53.263Z,0.78
2019-02-16T00:09:53.405Z,0.83
2019-02-16T00:10:53.548Z,0.85
2019-02-16T00:11:53.692Z,0.68
2019-02-16T00:12:53.834Z,0.68
2019-02-16T00:13:53.972Z,0.64
2019-02-16T00:14:54.115Z,0.58
2019-02-16T00:15:54.257Z,0.67
2019-02-16T00:16:54.401Z,0.52
2019-02-16T00:17:54.543Z,0.49
2019-02-16T00:18:54.689Z,0.52
2019-02-16T00:19:54.834Z,0.53
2019-02-16T00:21:03.383Z,0.52
2019-02-16T00:21:55.119Z,0.38
2019-02-16T00:22:55.261Z,0.36
2019-02-16T00:23:55.403Z,0.49
2019-02-16T00:24:55.546Z,0.48
2019-02-16T00:25:55.692Z,0.48
2019-02-16T00:26:55.834Z,0.39
2019-02-16T00:27:55.979Z,0.39
2019-02-16T00:28:56.123Z,0.41
2019-02-16T00:29:56.265Z,0.39
2019-02-16T00:30:56.406Z,0.52
2019-02-16T00:31:56.549Z,0.43
2019-02-16T00:32:56.688Z,0.48
2019-02-16T00:33:56.835Z,0.46
2019-02-16T00:34:56.976Z,0.34
2019-02-16T00:35:57.121Z,0.38
2019-02-16T00:36:57.258Z,0.34
2019-02-16T00:37:57.407Z,0.31
2019-02-16T00:38:57.562Z,0.41
2019-02-16T00:39:57.689Z,0.34
2019-02-16T00:40:57.833Z,0.21
2019-02-16T00:41:57.974Z,0.09
2019-02-16T00:42:58.119Z,0.13
2019-02-16T00:43:58.262Z,0.06
2019-02-16T00:44:58.406Z,0.18
2019-02-16T00:45:58.547Z,0.23
2019-02-16T00:46:58.691Z,0.16
2019-02-16T00:47:58.843Z,0.09
2019-02-16T00:48:58.985Z,0.16
2019-02-16T00:49:59.131Z,0.10
2019-02-16T00:50:59.273Z,0.09
2019-02-16T00:51:59.415Z,0.15
2019-02-16T00:52:59.555Z,0.16
2019-02-16T00:53:59.702Z,0.13
2019-02-16T00:54:59.843Z,0.24
2019-02-16T00:55:59.990Z,0.27
2019-02-16T00:57:00.139Z,0.30
2019-02-16T00:58:00.276Z,0.34
2019-02-16T00:59:00.420Z,0.28
2019-02-16T01:00:00.563Z,0.18
2019-02-16T01:01:00.708Z,0.20
2019-02-16T01:02:00.849Z,0.16
2019-02-16T01:03:00.992Z,0.03
2019-02-16T01:04:01.137Z,0.09
2019-02-16T01:05:01.278Z,0.03
2019-02-16T01:06:01.421Z,0.18
2019-02-16T01:07:01.562Z,0.10
2019-02-16T01:08:01.704Z,0.12
2019-02-16T01:09:01.850Z,0.18
2019-02-16T01:10:01.994Z,0.23
2019-02-16T01:11:02.130Z,0.23
2019-02-16T01:12:02.304Z,0.21
2019-02-16T01:13:02.417Z,0.16
2019-02-16T01:14:02.559Z,0.23
2019-02-16T01:15:02.702Z,0.24
2019-02-16T01:16:02.849Z,0.28
2019-02-16T01:17:02.991Z,0.09
2019-02-16T01:18:03.132Z,0.16
2019-02-16T01:19:03.286Z,0.20
2019-02-16T01:20:03.417Z,0.05
2019-02-16T01:21:03.561Z,0.16
2019-02-16T01:22:03.702Z,0.03
2019-02-16T01:23:03.844Z,0.05
2019-02-16T01:24:03.992Z,0.00
2019-02-16T01:25:04.136Z,-0.15
2019-02-16T01:26:04.277Z,-0.05
2019-02-16T01:27:04.417Z,-0.01
2019-02-16T01:28:04.565Z,-0.15
2019-02-16T01:29:04.705Z,-0.12
2019-02-16T01:30:04.854Z,-0.08
2019-02-16T01:31:04.995Z,0.02
2019-02-16T01:32:05.136Z,-0.08
2019-02-16T01:33:05.285Z,-0.15
2019-02-16T01:34:05.416Z,0.05
2019-02-16T01:35:05.560Z,-0.06
2019-02-16T01:36:05.703Z,-0.12
2019-02-16T01:37:05.847Z,-0.05
2019-02-16T01:38:05.988Z,-0.05
2019-02-16T01:39:06.133Z,-0.12
2019-02-16T01:40:06.274Z,-0.01
2019-02-16T01:41:06.418Z,-0.12
2019-02-16T01:42:06.562Z,-0.16
2019-02-16T01:43:06.707Z,-0.12
2019-02-16T01:44:06.859Z,-0.12
2019-02-16T01:45:06.985Z,-0.12
2019-02-16T01:46:07.133Z,0.02
2019-02-16T01:47:07.278Z,0.06
2019-02-16T01:48:07.415Z,0.15
2019-02-16T01:49:07.556Z,-0.05
2019-02-16T01:50:07.704Z,0.02
2019-02-16T01:51:07.837Z,0.12
2019-02-16T01:52:07.983Z,0.06
2019-02-16T01:53:08.127Z,0.12
2019-02-16T01:54:08.266Z,0.02
2019-02-16T01:55:08.395Z,0.05
2019-02-16T01:56:08.541Z,0.03
2019-02-16T01:57:08.685Z,0.09
2019-02-16T01:58:08.827Z,0.02
2019-02-16T01:59:08.971Z,0.05
2019-02-16T02:00:09.115Z,-0.08
2019-02-16T02:01:09.262Z,-0.08
2019-02-16T02:02:09.420Z,-0.15
2019-02-16T02:03:09.541Z,-0.13
2019-02-16T02:04:09.678Z,-0.27
2019-02-16T02:05:09.832Z,-0.16
2019-02-16T02:06:09.973Z,-0.31
2019-02-16T02:07:10.120Z,-0.39
2019-02-16T02:08:10.257Z,-0.33
2019-02-16T02:09:12.180Z,-0.34
2019-02-16T02:10:10.542Z,-0.31
2019-02-16T02:11:10.682Z,-0.34
2019-02-16T02:12:10.827Z,-0.31
2019-02-16T02:13:10.968Z,-0.26
2019-02-16T02:14:11.110Z,-0.29
2019-02-16T02:15:11.253Z,-0.33
2019-02-16T02:16:11.396Z,-0.30
2019-02-16T02:17:11.537Z,-0.27
2019-02-16T02:18:11.682Z,-0.23
2019-02-16T02:19:11.824Z,-0.18
2019-02-16T02:20:11.967Z,-0.18
2019-02-16T02:21:12.112Z,-0.16
2019-02-16T02:22:12.251Z,-0.29
2019-02-16T02:23:12.392Z,-0.31
2019-02-16T02:24:12.533Z,-0.24
2019-02-16T02:25:12.677Z,-0.24
2019-02-16T02:26:12.817Z,-0.36
2019-02-16T02:27:12.960Z,-0.44
2019-02-16T02:28:13.103Z,-0.30
2019-02-16T02:29:13.243Z,-0.37
2019-02-16T02:30:13.388Z,-0.51
2019-02-16T02:31:13.531Z,-0.41
2019-02-16T02:32:13.676Z,-0.54
2019-02-16T02:33:13.818Z,-0.52
2019-02-16T02:34:13.962Z,-0.62
2019-02-16T02:35:14.099Z,-0.54
2019-02-16T02:36:14.246Z,-0.62
2019-02-16T02:37:14.390Z,-0.75
2019-02-16T02:38:14.530Z,-0.60
2019-02-16T02:39:14.672Z,-0.63
2019-02-16T02:40:14.814Z,-0.60
2019-02-16T02:41:14.956Z,-0.52
2019-02-16T02:42:15.101Z,-0.63
2019-02-16T02:43:15.241Z,-0.42
2019-02-16T02:44:15.389Z,-0.54
2019-02-16T02:45:15.528Z,-0.51
2019-02-16T02:46:15.668Z,-0.50
2019-02-16T02:47:15.808Z,-0.47
2019-02-16T02:48:15.955Z,-0.44
2019-02-16T02:49:16.097Z,-0.59
2019-02-16T02:50:16.240Z,-0.59
2019-02-16T02:51:16.385Z,-0.48
2019-02-16T02:52:16.528Z,-0.48
2019-02-16T02:53:16.669Z,-0.50
2019-02-16T02:54:16.810Z,-0.52
2019-02-16T02:55:16.958Z,-0.59
2019-02-16T02:56:17.096Z,-0.62
2019-02-16T02:57:17.235Z,-0.59
2019-02-16T02:58:17.378Z,-0.47
2019-02-16T02:59:17.521Z,-0.41
2019-02-16T03:00:17.665Z,-0.51
2019-02-16T03:01:17.810Z,-0.47
2019-02-16T03:02:17.949Z,-0.41
2019-02-16T03:03:18.091Z,-0.60
2019-02-16T03:04:18.234Z,-0.55
2019-02-16T03:05:18.376Z,-0.57
2019-02-16T03:06:18.518Z,-0.59
2019-02-16T03:07:18.661Z,-0.70
2019-02-16T03:08:18.804Z,-0.80
2019-02-16T03:09:18.945Z,-0.69
2019-02-16T03:10:19.091Z,-0.63
2019-02-16T03:11:19.226Z,-0.81
2019-02-16T03:12:19.367Z,-0.68
2019-02-16T03:13:19.507Z,-0.78
2019-02-16T03:14:19.653Z,-0.80
2019-02-16T03:15:19.792Z,-0.75
2019-02-16T03:16:19.932Z,-0.80
2019-02-16T03:17:20.072Z,-0.84
2019-02-16T03:18:20.216Z,-0.78
2019-02-16T03:19:20.354Z,-0.78
2019-02-16T03:20:20.496Z,-0.86
2019-02-16T03:21:20.635Z,-0.92
2019-02-16T03:22:20.776Z,-0.84
2019-02-16T03:23:20.923Z,-0.75
2019-02-16T03:24:21.063Z,-0.78
2019-02-16T03:25:21.216Z,-0.77
2019-02-16T03:26:21.349Z,-0.78
2019-02-16T03:27:21.493Z,-0.73
2019-02-16T03:28:21.634Z,-0.73
2019-02-16T03:29:21.783Z,-0.68
2019-02-16T03:30:21.919Z,-0.65
2019-02-16T03:31:22.062Z,-0.81
2019-02-16T03:32:22.205Z,-0.91
2019-02-16T03:33:22.351Z,-0.89
2019-02-16T03:34:22.501Z,-0.91
2019-02-16T03:35:22.634Z,-0.91
2019-02-16T03:36:22.779Z,-0.99
2019-02-16T03:37:22.921Z,-0.94
2019-02-16T03:38:23.061Z,-0.91
2019-02-16T03:39:23.203Z,-0.91
2019-02-16T03:40:23.351Z,-0.84
2019-02-16T03:41:23.486Z,-0.84
2019-02-16T03:42:23.636Z,-0.80
2019-02-16T03:43:23.771Z,-0.89
2019-02-16T03:44:23.914Z,-0.92
2019-02-16T03:45:24.057Z,-0.81
2019-02-16T03:46:24.199Z,-0.86
2019-02-16T03:47:24.338Z,-0.77
2019-02-16T03:48:24.482Z,-0.92
2019-02-16T03:49:24.625Z,-0.73
2019-02-16T03:50:24.770Z,-0.91
2019-02-16T03:51:24.908Z,-0.81
2019-02-16T03:52:25.052Z,-0.86
2019-02-16T03:53:25.193Z,-0.84
2019-02-16T03:54:25.334Z,-0.84
2019-02-16T03:55:25.476Z,-0.84
2019-02-16T03:56:25.620Z,-0.91
2019-02-16T03:57:25.763Z,-0.83
2019-02-16T03:58:25.907Z,-0.91
2019-02-16T03:59:26.049Z,-0.80
2019-02-16T04:00:26.192Z,-0.69
2019-02-16T04:01:26.333Z,-0.72
2019-02-16T04:02:26.480Z,-0.72
2019-02-16T04:03:26.620Z,-0.91
2019-02-16T04:04:26.763Z,-0.75
2019-02-16T04:05:26.906Z,-0.77
2019-02-16T04:06:27.051Z,-0.73
2019-02-16T04:07:27.192Z,-0.73
2019-02-16T04:08:27.333Z,-0.70
2019-02-16T04:09:27.498Z,-0.80
2019-02-16T04:10:27.617Z,-0.73
2019-02-16T04:11:27.760Z,-0.69
2019-02-16T04:12:27.905Z,-0.80
2019-02-16T04:13:28.042Z,-0.66
2019-02-16T04:14:28.230Z,-0.80
2019-02-16T04:15:28.327Z,-0.66
2019-02-16T04:16:28.468Z,-0.75
2019-02-16T04:17:28.611Z,-0.73
2019-02-16T04:18:28.753Z,-0.69
2019-02-16T04:19:28.896Z,-0.65
2019-02-16T04:20:29.035Z,-0.75
2019-02-16T04:21:29.182Z,-0.68
2019-02-16T04:22:29.318Z,-0.78
2019-02-16T04:23:29.463Z,-0.69
2019-02-16T04:24:29.604Z,-0.63
2019-02-16T04:25:29.750Z,-0.77
2019-02-16T04:26:29.887Z,-0.75
2019-02-16T04:27:30.031Z,-0.72
2019-02-16T04:28:30.172Z,-0.80
2019-02-16T04:29:30.313Z,-0.81
2019-02-16T04:30:30.455Z,-0.80
2019-02-16T04:31:30.613Z,-0.87
2019-02-16T04:32:30.743Z,-1.00
2019-02-16T04:33:30.884Z,-0.95
2019-02-16T04:34:31.026Z,-1.00
2019-02-16T04:35:31.169Z,-1.06
2019-02-16T04:36:31.313Z,-1.13
2019-02-16T04:37:31.458Z,-1.20
2019-02-16T04:38:31.598Z,-1.30
2019-02-16T04:39:31.740Z,-1.33
2019-02-16T04:40:31.882Z,-1.48
2019-02-16T04:41:32.025Z,-1.46
2019-02-16T04:42:32.171Z,-1.54
2019-02-16T04:43:32.313Z,-1.54
2019-02-16T04:44:32.456Z,-1.48
2019-02-16T04:45:32.594Z,-1.53
2019-02-16T04:46:32.736Z,-1.48
2019-02-16T04:47:32.877Z,-1.45
2019-02-16T04:48:33.014Z,-1.45
2019-02-16T04:49:33.162Z,-1.48
2019-02-16T04:50:33.301Z,-1.46
2019-02-16T04:51:33.452Z,-1.53
2019-02-16T04:52:35.173Z,-1.51
2019-02-16T04:53:33.731Z,-1.54
2019-02-16T04:54:33.875Z,-1.64
2019-02-16T04:55:34.014Z,-1.69
2019-02-16T04:56:34.154Z,-1.54
2019-02-16T04:57:34.296Z,-1.66
2019-02-16T04:58:34.440Z,-1.67
2019-02-16T04:59:34.589Z,-1.69
2019-02-16T05:00:34.724Z,-1.63
2019-02-16T05:01:34.866Z,-1.69
2019-02-16T05:02:35.009Z,-1.69
2019-02-16T05:03:35.147Z,-1.62
2019-02-16T05:04:35.296Z,-1.66
2019-02-16T05:05:35.433Z,-1.51
2019-02-16T05:06:35.572Z,-1.59
2019-02-16T05:07:35.717Z,-1.59
2019-02-16T05:08:35.861Z,-1.42
2019-02-16T05:09:36.001Z,-1.43
2019-02-16T05:10:36.143Z,-1.46
2019-02-16T05:11:36.282Z,-1.49
2019-02-16T05:12:36.427Z,-1.41
2019-02-16T05:13:36.567Z,-1.39
2019-02-16T05:14:36.714Z,-1.46
2019-02-16T05:15:36.856Z,-1.57
2019-02-16T05:16:36.996Z,-1.49
2019-02-16T05:17:37.138Z,-1.33
2019-02-16T05:18:37.283Z,-1.36
2019-02-16T05:19:37.423Z,-1.39
2019-02-16T05:20:37.565Z,-1.33
2019-02-16T05:21:37.705Z,-1.31
2019-02-16T05:22:44.285Z,-1.43
2019-02-16T05:23:38.005Z,-1.27
2019-02-16T05:24:38.138Z,-1.33
2019-02-16T05:25:38.281Z,-1.38
2019-02-16T05:26:38.421Z,-1.31
2019-02-16T05:27:38.571Z,-1.45
2019-02-16T05:28:38.750Z,-1.39
2019-02-16T05:29:38.857Z,-1.43
2019-02-16T05:30:38.994Z,-1.46
2019-02-16T05:31:39.133Z,-1.57
2019-02-16T05:32:39.271Z,-1.60
2019-02-16T05:33:39.411Z,-1.57
2019-02-16T05:34:39.551Z,-1.54
2019-02-16T05:35:39.692Z,-1.62
2019-02-16T05:36:39.835Z,-1.48
2019-02-16T05:37:39.982Z,-1.51
2019-02-16T05:38:40.120Z,-1.46
2019-02-16T05:39:40.251Z,-1.46
2019-02-16T05:40:40.392Z,-1.46
2019-02-16T05:41:40.532Z,-1.42
2019-02-16T05:42:40.721Z,-1.48
2019-02-16T05:43:40.816Z,-1.51
2019-02-16T05:44:40.961Z,-1.43
2019-02-16T05:45:41.101Z,-1.56
2019-02-16T05:46:41.243Z,-1.48
2019-02-16T05:47:41.386Z,-1.46
2019-02-16T05:48:41.529Z,-1.51
2019-02-16T05:49:41.674Z,-1.41
2019-02-16T05:50:41.818Z,-1.46
2019-02-16T05:51:41.959Z,-1.42
2019-02-16T05:52:42.095Z,-1.46
2019-02-16T05:53:42.237Z,-1.45
2019-02-16T05:54:42.380Z,-1.54
2019-02-16T05:55:42.524Z,-1.48
2019-02-16T05:56:42.669Z,-1.53
2019-02-16T05:57:42.816Z,-1.42
2019-02-16T05:58:42.957Z,-1.48
2019-02-16T05:59:43.098Z,-1.41
2019-02-16T06:00:43.243Z,-1.41
2019-02-16T06:01:53.227Z,-1.35
2019-02-16T06:02:43.524Z,-1.28
2019-02-16T06:03:43.702Z,-1.39
2019-02-16T06:04:43.824Z,-1.39
2019-02-16T06:05:43.966Z,-1.41
2019-02-16T06:06:44.108Z,-1.43
2019-02-16T06:07:44.254Z,-1.49
2019-02-16T06:08:44.393Z,-1.41
2019-02-16T06:09:44.539Z,-1.39
2019-02-16T06:10:44.677Z,-1.30
2019-02-16T06:11:44.823Z,-1.38
2019-02-16T06:12:44.962Z,-1.33
2019-02-16T06:13:45.101Z,-1.42
2019-02-16T06:14:45.247Z,-1.33
2019-02-16T06:15:45.398Z,-1.21
2019-02-16T06:16:45.530Z,-1.25
2019-02-16T06:17:45.672Z,-1.27
2019-02-16T06:18:45.814Z,-1.33
2019-02-16T06:19:45.957Z,-1.31
2019-02-16T06:20:46.100Z,-1.38
2019-02-16T06:21:46.242Z,-1.28
2019-02-16T06:22:46.389Z,-1.27
2019-02-16T06:23:46.527Z,-1.27
2019-02-16T06:24:46.677Z,-1.42
2019-02-16T06:25:47.185Z,-1.41
2019-02-16T06:26:47.140Z,-1.46
2019-02-16T06:27:47.112Z,-1.45
2019-02-16T06:28:47.243Z,-1.46
2019-02-16T06:29:47.379Z,-1.59
2019-02-16T06:30:47.521Z,-1.57
2019-02-16T06:31:47.663Z,-1.59
2019-02-16T06:32:47.804Z,-1.57
2019-02-16T06:33:47.945Z,-1.53
2019-02-16T06:34:48.100Z,-1.57
2019-02-16T06:35:48.229Z,-1.45
2019-02-16T06:36:48.372Z,-1.41
2019-02-16T06:37:48.512Z,-1.41
2019-02-16T06:38:48.652Z,-1.42
2019-02-16T06:39:48.796Z,-1.36
2019-02-16T06:40:48.938Z,-1.27
2019-02-16T06:41:49.082Z,-1.24
2019-02-16T06:42:49.224Z,-1.23
2019-02-16T06:43:49.364Z,-1.12
2019-02-16T06:44:49.506Z,-1.28
2019-02-16T06:45:49.646Z,-1.38
2019-02-16T06:46:49.790Z,-1.28
2019-02-16T06:47:49.933Z,-1.31
2019-02-16T06:48:50.073Z,-1.28
2019-02-16T06:49:50.217Z,-1.18
2019-02-16T06:50:50.358Z,-1.31
2019-02-16T06:51:50.502Z,-1.35
2019-02-16T06:52:50.645Z,-1.41
2019-02-16T06:53:50.844Z,-1.53
2019-02-16T06:54:50.931Z,-1.78
2019-02-16T06:55:51.078Z,-1.66
2019-02-16T06:56:51.219Z,-1.62
2019-02-16T06:57:51.360Z,-1.45
2019-02-16T06:58:51.504Z,-1.51
2019-02-16T06:59:51.646Z,-1.54
2019-02-16T07:00:51.790Z,-1.59
2019-02-16T07:01:51.934Z,-1.63
2019-02-16T07:02:52.074Z,-1.64
2019-02-16T07:03:52.217Z,-1.70
2019-02-16T07:04:52.360Z,-1.67
2019-02-16T07:05:52.506Z,-1.67
2019-02-16T07:06:52.643Z,-1.63
2019-02-16T07:07:52.786Z,-1.77
2019-02-16T07:08:52.928Z,-1.74
2019-02-16T07:09:53.071Z,-1.82
2019-02-16T07:10:53.210Z,-1.78
2019-02-16T07:11:53.354Z,-1.63
2019-02-16T07:12:53.498Z,-1.69
2019-02-16T07:13:53.643Z,-1.57
2019-02-16T07:14:53.783Z,-1.45
2019-02-16T07:15:53.926Z,-1.38
2019-02-16T07:16:54.069Z,-1.38
2019-02-16T07:17:54.209Z,-1.41
2019-02-16T07:18:54.351Z,-1.36
2019-02-16T07:19:54.497Z,-1.38
2019-02-16T07:20:54.634Z,-1.41
2019-02-16T07:21:54.776Z,-1.45
2019-02-16T07:22:54.917Z,-1.36
2019-02-16T07:23:55.069Z,-1.39
2019-02-16T07:24:55.202Z,-1.31
2019-02-16T07:25:55.342Z,-1.35
2019-02-16T07:26:55.487Z,-1.45
2019-02-16T07:27:55.625Z,-1.33
2019-02-16T07:28:55.767Z,-1.39
2019-02-16T07:29:55.911Z,-1.38
2019-02-16T07:30:56.057Z,-1.31
2019-02-16T07:31:56.197Z,-1.36
2019-02-16T07:32:56.340Z,-1.42
2019-02-16T07:33:56.483Z,-1.25
2019-02-16T07:34:56.629Z,-1.28
2019-02-16T07:35:56.773Z,-1.12
2019-02-16T07:36:56.914Z,-1.24
2019-02-16T07:37:57.057Z,-1.21
2019-02-16T07:38:57.197Z,-1.09
2019-02-16T07:39:57.333Z,-1.24
2019-02-16T07:40:57.478Z,-1.15
2019-02-16T07:41:57.628Z,-1.21
2019-02-16T07:42:57.765Z,-1.20
2019-02-16T07:43:57.910Z,-1.15
2019-02-16T07:44:58.053Z,-1.15
2019-02-16T07:45:58.199Z,-1.12
2019-02-16T07:46:58.353Z,-1.05
2019-02-16T07:47:58.477Z,-1.06
2019-02-16T07:48:58.657Z,-0.97
2019-02-16T07:49:58.763Z,-0.91
2019-02-16T07:50:58.903Z,-0.87
2019-02-16T07:51:59.045Z,-0.95
2019-02-16T07:52:59.189Z,-0.80
2019-02-16T07:53:59.329Z,-0.80
2019-02-16T07:54:59.475Z,-0.77
2019-02-16T07:55:59.618Z,-0.69
2019-02-16T07:56:59.763Z,-0.77
2019-02-16T07:57:59.905Z,-0.66
2019-02-16T07:59:00.050Z,-0.54
2019-02-16T08:00:00.411Z,-0.55
2019-02-16T08:01:00.347Z,-0.42
2019-02-16T08:02:00.485Z,-0.31
2019-02-16T08:03:00.632Z,-0.39
2019-02-16T08:04:00.771Z,-0.41
2019-02-16T08:05:00.919Z,-0.41
2019-02-16T08:06:01.061Z,-0.29
2019-02-16T08:07:01.201Z,-0.15
2019-02-16T08:08:01.407Z,-0.05
2019-02-16T08:09:01.486Z,-0.09
2019-02-16T08:10:01.627Z,-0.11
2019-02-16T08:11:01.771Z,-0.04
2019-02-16T08:12:01.915Z,0.03
2019-02-16T08:13:02.064Z,0.03
2019-02-16T08:14:02.202Z,0.13
2019-02-16T08:15:02.343Z,0.10
2019-02-16T08:16:02.489Z,-0.04
2019-02-16T08:17:02.629Z,0.03
2019-02-16T08:18:02.773Z,0.02
2019-02-16T08:19:02.916Z,0.09
2019-02-16T08:20:03.064Z,0.10
2019-02-16T08:21:03.206Z,0.13
2019-02-16T08:22:03.347Z,0.21
2019-02-16T08:23:03.494Z,0.07
2019-02-16T08:24:03.635Z,0.16
2019-02-16T08:25:03.783Z,0.15
2019-02-16T08:26:03.925Z,0.33
2019-02-16T08:27:04.069Z,0.41
2019-02-16T08:28:04.207Z,0.65
2019-02-16T08:29:04.365Z,0.64
2019-02-16T08:30:04.502Z,0.67
2019-02-16T08:31:04.641Z,0.67
2019-02-16T08:32:04.785Z,0.79
2019-02-16T08:33:04.931Z,0.80
2019-02-16T08:34:05.078Z,0.92
2019-02-16T08:35:05.218Z,0.86
2019-02-16T08:36:05.363Z,0.98
2019-02-16T08:37:05.506Z,1.07
2019-02-16T08:38:05.653Z,1.12
2019-02-16T08:39:05.795Z,1.04
2019-02-16T08:40:05.938Z,1.04
2019-02-16T08:41:06.081Z,1.14
2019-02-16T08:42:06.223Z,1.16
2019-02-16T08:43:06.367Z,1.04
2019-02-16T08:44:06.512Z,1.06
2019-02-16T08:45:06.659Z,1.29
2019-02-16T08:46:06.803Z,1.22
2019-02-16T08:47:06.946Z,1.36
2019-02-16T08:48:07.095Z,1.40
2019-02-16T08:49:07.234Z,1.43
2019-02-16T08:50:07.379Z,1.47
2019-02-16T08:51:07.523Z,1.52
2019-02-16T08:52:07.677Z,1.61
2019-02-16T08:53:07.815Z,1.75
2019-02-16T08:54:07.957Z,1.73
2019-02-16T08:55:08.106Z,1.85
2019-02-16T08:56:08.245Z,1.89
2019-02-16T08:57:08.390Z,1.89
2019-02-16T08:58:08.540Z,1.83
2019-02-16T08:59:08.684Z,1.79
2019-02-16T09:00:08.835Z,1.69
2019-02-16T09:01:08.973Z,1.71
2019-02-16T09:02:09.124Z,1.72
2019-02-16T09:03:09.273Z,1.60
2019-02-16T09:04:09.414Z,1.69
2019-02-16T09:05:09.556Z,1.76
2019-02-16T09:06:09.701Z,1.85
2019-02-16T09:07:09.844Z,1.75
2019-02-16T09:08:09.986Z,1.90
2019-02-16T09:09:10.133Z,2.04
2019-02-16T09:10:10.277Z,2.02
2019-02-16T09:11:10.424Z,2.10
2019-02-16T09:12:10.560Z,2.23
2019-02-16T09:13:10.706Z,2.19
2019-02-16T09:14:10.848Z,2.30
2019-02-16T09:15:10.999Z,2.22
2019-02-16T09:16:11.146Z,2.35
2019-02-16T09:17:13.234Z,2.22
2019-02-16T09:18:11.436Z,2.16
2019-02-16T09:19:11.580Z,2.19
2019-02-16T09:20:11.727Z,2.34
2019-02-16T09:21:14.661Z,2.44
2019-02-16T09:22:13.505Z,2.35
2019-02-16T09:23:12.161Z,2.51
2019-02-16T09:24:12.306Z,2.46
2019-02-16T09:25:12.455Z,2.48
2019-02-16T09:26:12.598Z,2.58
2019-02-16T09:27:12.742Z,2.61
2019-02-16T09:28:12.885Z,2.77
2019-02-16T09:29:13.030Z,2.79
2019-02-16T09:30:13.175Z,2.85
2019-02-16T09:31:13.322Z,2.95
2019-02-16T09:32:13.468Z,3.06
2019-02-16T09:33:13.612Z,3.24
2019-02-16T09:34:13.760Z,3.30
2019-02-16T09:35:13.902Z,3.50
2019-02-16T09:36:14.050Z,3.64
2019-02-16T09:37:14.234Z,3.82
2019-02-16T09:38:14.394Z,3.83
2019-02-16T09:39:14.491Z,3.97
2019-02-16T09:40:14.636Z,4.03
2019-02-16T09:41:14.781Z,4.19
2019-02-16T09:42:14.944Z,4.26
2019-02-16T09:43:15.092Z,4.32
2019-02-16T09:44:15.242Z,4.42
2019-02-16T09:45:15.386Z,4.52
2019-02-16T09:46:15.531Z,4.70
2019-02-16T09:47:15.681Z,4.62
2019-02-16T09:48:15.825Z,4.69
2019-02-16T09:49:15.973Z,4.76
2019-02-16T09:50:16.118Z,4.83
2019-02-16T09:51:16.270Z,4.89
2019-02-16T09:52:16.408Z,4.88
2019-02-16T09:53:16.562Z,4.89
2019-02-16T09:54:16.703Z,4.99
2019-02-16T09:55:16.847Z,5.10
2019-02-16T09:56:16.996Z,5.17
2019-02-16T09:57:17.144Z,5.32
2019-02-16T09:58:17.293Z,5.31
2019-02-16T09:59:17.435Z,5.37
2019-02-16T10:00:17.582Z,5.50
2019-02-16T10:01:17.727Z,5.52
2019-02-16T10:02:17.875Z,5.63
2019-02-16T10:03:18.025Z,5.67
2019-02-16T10:04:18.170Z,5.83
2019-02-16T10:05:18.320Z,5.82
2019-02-16T10:06:18.466Z,5.95
2019-02-16T10:07:18.609Z,6.13
2019-02-16T10:08:18.755Z,6.29
2019-02-16T10:09:18.902Z,6.47
2019-02-16T10:10:19.048Z,6.69
2019-02-16T10:11:19.199Z,6.86
2019-02-16T10:12:19.336Z,6.84
2019-02-16T10:13:19.483Z,7.01
2019-02-16T10:14:19.647Z,7.07
2019-02-16T10:15:19.794Z,7.17
2019-02-16T10:16:19.938Z,7.13
2019-02-16T10:17:20.093Z,7.05
2019-02-16T10:18:20.236Z,7.22
2019-02-16T10:19:20.383Z,7.23
2019-02-16T10:20:20.531Z,7.35
2019-02-16T10:21:20.678Z,7.35
2019-02-16T10:22:20.826Z,7.56
2019-02-16T10:23:20.975Z,7.77
2019-02-16T10:24:21.121Z,7.89
2019-02-16T10:25:21.268Z,8.12
2019-02-16T10:26:21.417Z,8.11
2019-02-16T10:27:21.566Z,8.44
2019-02-16T10:28:21.711Z,8.79
2019-02-16T10:29:21.861Z,8.96
2019-02-16T10:30:22.011Z,9.27
2019-02-16T10:31:22.159Z,9.50
2019-02-16T10:32:22.315Z,9.60
2019-02-16T10:33:22.461Z,9.81
2019-02-16T10:34:22.605Z,9.88
2019-02-16T10:35:22.754Z,10.04
2019-02-16T10:36:22.901Z,10.07
2019-02-16T10:37:23.050Z,10.19
2019-02-16T10:38:23.200Z,10.17
2019-02-16T10:39:23.349Z,10.18
2019-02-16T10:40:23.508Z,10.25
2019-02-16T10:41:23.656Z,10.34
2019-02-16T10:42:23.805Z,10.39
2019-02-16T10:43:23.957Z,10.44
2019-02-16T10:44:24.108Z,10.30
2019-02-16T10:45:24.255Z,10.25
2019-02-16T10:46:24.405Z,10.24
2019-02-16T10:47:24.551Z,9.96
2019-02-16T10:48:24.703Z,9.83
2019-02-16T10:49:24.848Z,9.68
2019-02-16T10:50:24.998Z,9.52
2019-02-16T10:51:25.155Z,9.53
2019-02-16T10:52:25.296Z,9.40
2019-02-16T10:53:25.447Z,9.39
2019-02-16T10:54:29.096Z,9.43
2019-02-16T10:55:25.744Z,9.46
2019-02-16T10:56:25.892Z,9.60
2019-02-16T10:57:26.045Z,9.60
2019-02-16T10:58:26.204Z,9.73
2019-02-16T10:59:26.346Z,9.82
2019-02-16T11:00:26.492Z,9.83
2019-02-16T11:01:26.644Z,10.03
2019-02-16T11:02:26.789Z,9.99
2019-02-16T11:03:26.938Z,10.12
2019-02-16T11:04:27.091Z,10.25
2019-02-16T11:05:27.236Z,10.46
2019-02-16T11:06:27.386Z,10.52
2019-02-16T11:07:27.541Z,10.62
2019-02-16T11:08:27.690Z,10.77
2019-02-16T11:09:27.843Z,10.83
2019-02-16T11:10:27.989Z,10.89
2019-02-16T11:11:28.140Z,10.96
2019-02-16T11:12:28.295Z,11.10
2019-02-16T11:13:28.440Z,11.06
2019-02-16T11:14:28.592Z,11.10
2019-02-16T11:15:30.398Z,11.13
2019-02-16T11:16:28.894Z,11.17
2019-02-16T11:17:29.043Z,11.17
2019-02-16T11:18:29.197Z,11.38
2019-02-16T11:19:29.346Z,11.36
2019-02-16T11:20:29.485Z,11.54
2019-02-16T11:21:29.634Z,11.56
2019-02-16T11:22:29.790Z,11.61
2019-02-16T11:23:29.940Z,11.75
2019-02-16T11:24:35.892Z,11.93
2019-02-16T11:25:30.239Z,12.06
2019-02-16T11:26:30.392Z,12.13
2019-02-16T11:27:30.543Z,12.20
2019-02-16T11:28:30.688Z,12.34
2019-02-16T11:29:30.841Z,12.52
2019-02-16T11:30:30.989Z,12.42
2019-02-16T11:31:31.142Z,12.45
2019-02-16T11:32:31.289Z,12.67
2019-02-16T11:33:31.442Z,12.81
2019-02-16T11:34:31.589Z,12.77
2019-02-16T11:35:31.748Z,12.95
2019-02-16T11:36:31.907Z,13.02
2019-02-16T11:37:32.054Z,13.14
2019-02-16T11:38:32.207Z,13.25
2019-02-16T11:39:32.360Z,13.27
2019-02-16T11:40:32.512Z,13.32
2019-02-16T11:41:32.806Z,13.32
2019-02-16T11:42:32.809Z,13.44
2019-02-16T11:43:32.959Z,13.59
2019-02-16T11:44:33.107Z,13.46
2019-02-16T11:45:33.258Z,13.54
2019-02-16T11:46:33.411Z,13.71
2019-02-16T11:47:33.562Z,13.80
2019-02-16T11:48:33.730Z,13.96
2019-02-16T11:49:33.877Z,13.99
2019-02-16T11:50:34.026Z,14.13
2019-02-16T11:51:34.177Z,14.28
2019-02-16T11:52:34.329Z,14.34
2019-02-16T11:53:34.487Z,14.25
2019-02-16T11:54:34.631Z,14.37
2019-02-16T11:55:34.782Z,14.62
2019-02-16T11:56:34.950Z,14.62
2019-02-16T11:57:35.100Z,14.53
2019-02-16T11:58:35.255Z,14.67
2019-02-16T11:59:35.404Z,14.81
2019-02-16T12:00:35.558Z,14.43
2019-02-16T12:01:35.710Z,14.44
2019-02-16T12:02:39.808Z,14.16
2019-02-16T12:03:36.065Z,14.28
2019-02-16T12:04:36.206Z,14.31
2019-02-16T12:05:36.315Z,14.47
2019-02-16T12:06:36.465Z,14.56
2019-02-16T12:07:36.620Z,14.47
2019-02-16T12:08:36.772Z,14.54
2019-02-16T12:09:36.923Z,14.44
2019-02-16T12:10:37.075Z,14.46
2019-02-16T12:11:37.229Z,14.62
2019-02-16T12:12:37.384Z,14.80
2019-02-16T12:13:37.530Z,14.93
2019-02-16T12:14:37.684Z,15.11
2019-02-16T12:15:37.835Z,15.30
2019-02-16T12:16:37.988Z,15.42
2019-02-16T12:17:38.142Z,15.49
2019-02-16T12:18:38.292Z,15.57
2019-02-16T12:19:38.451Z,15.74
2019-02-16T12:20:38.600Z,15.76
2019-02-16T12:21:38.757Z,15.48
2019-02-16T12:22:38.907Z,15.63
2019-02-16T12:23:39.086Z,15.66
2019-02-16T12:24:39.238Z,15.70
2019-02-16T12:25:39.393Z,15.63
2019-02-16T12:26:39.544Z,15.75
2019-02-16T12:27:39.697Z,15.82
2019-02-16T12:28:39.848Z,15.70
2019-02-16T12:29:40.001Z,15.82
2019-02-16T12:30:40.155Z,15.88
2019-02-16T12:31:40.309Z,15.93
2019-02-16T12:32:40.458Z,15.93
2019-02-16T12:33:40.614Z,15.75
2019-02-16T12:34:40.766Z,15.79
2019-02-16T12:35:40.921Z,16.00
2019-02-16T12:36:41.074Z,15.99
2019-02-16T12:37:41.225Z,16.27
2019-02-16T12:38:41.378Z,16.31
2019-02-16T12:39:41.531Z,16.55
2019-02-16T12:40:41.685Z,16.74
2019-02-16T12:41:41.837Z,16.23
2019-02-16T12:42:41.990Z,16.50
2019-02-16T12:43:42.145Z,16.77
2019-02-16T12:44:42.294Z,16.80
2019-02-16T12:45:50.883Z,17.13
2019-02-16T12:46:42.605Z,17.64
2019-02-16T12:47:42.760Z,17.81
2019-02-16T12:48:42.909Z,18.50
2019-02-16T12:49:43.063Z,19.18
2019-02-16T12:50:43.218Z,19.46
2019-02-16T12:51:43.376Z,20.03
2019-02-16T12:52:43.523Z,20.03
2019-02-16T12:53:43.675Z,20.13
2019-02-16T12:54:43.829Z,20.58
2019-02-16T12:55:43.984Z,20.96
2019-02-16T12:56:44.138Z,20.98
2019-02-16T12:57:44.288Z,20.46
2019-02-16T12:58:44.441Z,20.28
2019-02-16T12:59:44.598Z,20.64
2019-02-16T13:00:44.753Z,20.72
2019-02-16T13:01:44.906Z,20.61
2019-02-16T13:02:45.058Z,20.08